createdAt,value
2023-05-20T00:01:03.216Z,7.5
2023-05-20T00:02:03.210Z,7.5
2023-05-20T00:03:03.279Z,7.5
2023-05-20T00:04:03.432Z,7.5
2023-05-20T00:05:03.357Z,7.5
2023-05-20T00:06:03.222Z,7.5
2023-05-20T00:07:03.222Z,7.5
2023-05-20T00:08:03.201Z,7.6
2023-05-20T00:09:03.231Z,7.5
2023-05-20T00:10:03.215Z,7.5
2023-05-20T00:11:03.248Z,7.5
2023-05-20T00:12:03.223Z,7.5
2023-05-20T00:13:03.227Z,7.5
2023-05-20T00:14:03.230Z,7.5
2023-05-20T00:15:03.221Z,7.5
2023-05-20T00:16:03.251Z,7.5
2023-05-20T00:17:03.215Z,7.5
2023-05-20T00:18:03.265Z,7.5
2023-05-20T00:19:03.222Z,7.6
2023-05-20T00:20:03.216Z,7.5
2023-05-20T00:21:03.217Z,7.5
2023-05-20T00:22:03.254Z,7.5
2023-05-20T00:23:03.200Z,7.5
2023-05-20T00:24:03.220Z,7.5
2023-05-20T00:25:03.210Z,7.5
2023-05-20T00:26:03.213Z,7.5
2023-05-20T00:27:03.258Z,7.6
2023-05-20T00:28:03.211Z,7.5
2023-05-20T00:29:03.224Z,7.6
2023-05-20T00:30:03.238Z,7.5
2023-05-20T00:31:03.229Z,7.6
2023-05-20T00:32:03.266Z,7.5
2023-05-20T00:33:03.278Z,7.5
2023-05-20T00:34:03.219Z,7.5
2023-05-20T00:35:03.218Z,7.5
2023-05-20T00:36:03.206Z,7.5
2023-05-20T00:37:03.201Z,7.5
2023-05-20T00:38:03.274Z,7.5
2023-05-20T00:39:03.210Z,7.5
2023-05-20T00:40:03.211Z,7.5
2023-05-20T00:41:03.231Z,7.5
2023-05-20T00:42:03.224Z,7.5
2023-05-20T00:43:03.219Z,7.6
2023-05-20T00:44:03.244Z,7.5
2023-05-20T00:45:03.247Z,7.5
2023-05-20T00:46:03.275Z,7.5
2023-05-20T00:47:03.202Z,7.5
2023-05-20T00:48:03.265Z,7.5
2023-05-20T00:49:03.221Z,7.5
2023-05-20T00:50:03.239Z,7.6
2023-05-20T00:52:03.200Z,7.5
2023-05-20T00:53:03.226Z,7.5
2023-05-20T00:54:03.206Z,7.5
2023-05-20T00:55:03.204Z,7.5
2023-05-20T00:56:03.228Z,7.5
2023-05-20T00:57:03.305Z,7.4
2023-05-20T00:58:03.222Z,7.4
2023-05-20T00:59:03.216Z,7.5
2023-05-20T01:00:03.206Z,7.5
2023-05-20T01:01:03.252Z,7.5
2023-05-20T01:02:03.284Z,7.5
2023-05-20T01:03:03.416Z,7.5
2023-05-20T01:04:03.209Z,7.5
2023-05-20T01:05:03.208Z,7.5
2023-05-20T01:06:03.255Z,7.6
2023-05-20T01:07:03.208Z,7.5
2023-05-20T01:08:03.208Z,7.5
2023-05-20T01:09:03.220Z,7.5
2023-05-20T01:10:03.257Z,7.5
2023-05-20T01:11:03.213Z,7.5
2023-05-20T01:12:03.205Z,7.5
2023-05-20T01:13:03.215Z,7.5
2023-05-20T01:14:03.245Z,7.5
2023-05-20T01:15:03.195Z,7.5
2023-05-20T01:16:03.254Z,7.5
2023-05-20T01:17:03.230Z,7.5
2023-05-20T01:18:03.255Z,7.6
2023-05-20T01:19:03.273Z,7.6
2023-05-20T01:20:03.244Z,7.5
2023-05-20T01:21:03.218Z,7.6
2023-05-20T01:22:03.222Z,7.6
2023-05-20T01:23:03.233Z,7.6
2023-05-20T01:24:03.217Z,7.6
2023-05-20T01:25:03.224Z,7.6
2023-05-20T01:26:03.220Z,7.6
2023-05-20T01:27:03.216Z,7.6
2023-05-20T01:28:03.217Z,7.6
2023-05-20T01:29:03.223Z,7.6
2023-05-20T01:30:03.217Z,7.6
2023-05-20T01:31:03.310Z,7.6
2023-05-20T01:32:03.215Z,7.6
2023-05-20T01:33:03.266Z,7.6
2023-05-20T01:34:03.215Z,7.6
2023-05-20T01:35:03.285Z,7.7
2023-05-20T01:36:03.228Z,7.6
2023-05-20T01:37:03.208Z,7.6
2023-05-20T01:38:03.299Z,7.6
2023-05-20T01:39:03.223Z,7.6
2023-05-20T01:40:03.268Z,7.6
2023-05-20T01:41:03.264Z,7.7
2023-05-20T01:42:03.218Z,7.6
2023-05-20T01:43:03.216Z,7.7
2023-05-20T01:44:03.236Z,7.6
2023-05-20T01:45:03.228Z,7.6
2023-05-20T01:46:03.264Z,7.6
2023-05-20T01:47:03.294Z,7.6
2023-05-20T01:48:03.271Z,7.7
2023-05-20T01:49:03.251Z,7.8
2023-05-20T01:50:03.217Z,7.8
2023-05-20T01:51:03.225Z,7.7
2023-05-20T01:52:03.217Z,7.7
2023-05-20T01:53:03.221Z,7.7
2023-05-20T01:54:03.213Z,7.7
2023-05-20T01:55:03.218Z,7.7
2023-05-20T01:56:03.228Z,7.7
2023-05-20T01:57:03.258Z,7.7
2023-05-20T01:58:03.220Z,7.8
2023-05-20T01:59:03.238Z,7.8
2023-05-20T02:00:03.225Z,7.8
2023-05-20T02:01:03.397Z,7.8
2023-05-20T02:02:03.244Z,7.8
2023-05-20T02:03:03.279Z,7.8
2023-05-20T02:04:03.219Z,7.7
2023-05-20T02:05:03.230Z,7.8
2023-05-20T02:06:03.387Z,7.8
2023-05-20T02:07:03.205Z,7.9
2023-05-20T02:08:03.212Z,7.8
2023-05-20T02:09:03.231Z,8
2023-05-20T02:10:03.254Z,7.9
2023-05-20T02:11:03.220Z,7.8
2023-05-20T02:12:03.221Z,7.9
2023-05-20T02:13:03.223Z,7.9
2023-05-20T02:14:03.254Z,7.9
2023-05-20T02:15:03.220Z,7.9
2023-05-20T02:16:03.301Z,7.9
2023-05-20T02:17:03.240Z,7.9
2023-05-20T02:18:03.290Z,7.9
2023-05-20T02:19:03.273Z,7.8
2023-05-20T02:20:03.228Z,7.8
2023-05-20T02:21:03.232Z,7.9
2023-05-20T02:22:03.212Z,7.9
2023-05-20T02:23:03.224Z,8
2023-05-20T02:24:03.249Z,8
2023-05-20T02:25:03.251Z,8
2023-05-20T02:26:03.245Z,8
2023-05-20T02:27:03.238Z,8.2
2023-05-20T02:28:03.213Z,8.2
2023-05-20T02:29:03.266Z,8.2
2023-05-20T02:30:03.222Z,8.2
2023-05-20T02:31:03.227Z,8.2
2023-05-20T02:32:03.240Z,8.3
2023-05-20T02:34:03.246Z,8.4
2023-05-20T02:35:03.243Z,8.1
2023-05-20T02:37:03.227Z,8.4
2023-05-20T02:38:03.230Z,8.4
2023-05-20T02:39:03.245Z,8.4
2023-05-20T02:40:04.195Z,8.4
2023-05-20T02:42:03.221Z,8.6
2023-05-20T02:43:03.256Z,8.5
2023-05-20T02:44:03.277Z,8.6
2023-05-20T02:45:03.217Z,8.6
2023-05-20T02:46:03.266Z,8.7
2023-05-20T02:47:03.256Z,8.7
2023-05-20T02:48:03.278Z,8.7
2023-05-20T02:49:03.232Z,8.8
2023-05-20T02:50:03.237Z,8.8
2023-05-20T02:51:03.241Z,8.8
2023-05-20T02:52:03.212Z,8.8
2023-05-20T02:53:03.219Z,8.9
2023-05-20T02:54:03.229Z,8.9
2023-05-20T02:55:03.250Z,8.9
2023-05-20T02:56:03.229Z,8.9
2023-05-20T02:57:03.266Z,8.9
2023-05-20T02:58:03.224Z,9
2023-05-20T02:59:03.235Z,8.9
2023-05-20T03:00:03.245Z,9
2023-05-20T03:01:03.296Z,8.9
2023-05-20T03:02:03.260Z,9
2023-05-20T03:03:03.250Z,9
2023-05-20T03:04:03.224Z,9
2023-05-20T03:05:03.243Z,9
2023-05-20T03:07:03.210Z,9.1
2023-05-20T03:08:03.407Z,9.1
2023-05-20T03:09:03.260Z,9.1
2023-05-20T03:10:03.238Z,9.1
2023-05-20T03:11:04.764Z,9.2
2023-05-20T03:12:03.268Z,9.1
2023-05-20T03:13:03.234Z,9.2
2023-05-20T03:14:03.266Z,9.2
2023-05-20T03:15:03.243Z,9.2
2023-05-20T03:16:03.325Z,9.2
2023-05-20T03:17:03.217Z,9.3
2023-05-20T03:18:03.342Z,9.2
2023-05-20T03:19:03.315Z,9.3
2023-05-20T03:20:03.222Z,9.3
2023-05-20T03:21:03.224Z,9.2
2023-05-20T03:22:03.213Z,9.3
2023-05-20T03:23:03.241Z,9.3
2023-05-20T03:24:03.242Z,9.2
2023-05-20T03:25:03.230Z,9.2
2023-05-20T03:26:03.277Z,9.3
2023-05-20T03:27:03.253Z,9.3
2023-05-20T03:28:03.263Z,9.3
2023-05-20T03:29:03.245Z,9.3
2023-05-20T03:31:03.341Z,9.3
2023-05-20T03:32:03.294Z,9.4
2023-05-20T03:33:03.421Z,9.3
2023-05-20T03:34:03.261Z,9.4
2023-05-20T03:35:03.249Z,9.3
2023-05-20T03:37:03.209Z,9.3
2023-05-20T03:38:03.227Z,9.4
2023-05-20T03:39:03.255Z,9.4
2023-05-20T03:40:10.193Z,9.4
2023-05-20T03:42:03.214Z,9.5
2023-05-20T03:43:03.251Z,9.4
2023-05-20T03:44:03.236Z,9.4
2023-05-20T03:45:03.245Z,9.4
2023-05-20T03:46:03.225Z,9.4
2023-05-20T03:47:03.310Z,9.4
2023-05-20T03:48:03.302Z,9.4
2023-05-20T03:49:03.220Z,9.5
2023-05-20T03:50:03.231Z,9.5
2023-05-20T03:51:03.221Z,9.5
2023-05-20T03:52:03.230Z,9.5
2023-05-20T03:53:03.254Z,9.5
2023-05-20T03:54:03.237Z,9.4
2023-05-20T03:55:03.238Z,9.4
2023-05-20T03:56:03.236Z,9.5
2023-05-20T03:57:03.223Z,9.4
2023-05-20T03:58:03.226Z,9.5
2023-05-20T03:59:03.253Z,9.5
2023-05-20T04:00:03.235Z,9.5
2023-05-20T04:01:03.234Z,9.5
2023-05-20T04:02:03.322Z,9.5
2023-05-20T04:03:03.368Z,9.5
2023-05-20T04:04:03.286Z,9.5
2023-05-20T04:05:03.231Z,9.5
2023-05-20T04:06:03.224Z,9.5
2023-05-20T04:07:03.225Z,9.5
2023-05-20T04:08:03.233Z,9.5
2023-05-20T04:09:03.215Z,9.5
2023-05-20T04:10:03.248Z,9.5
2023-05-20T04:11:03.222Z,9.5
2023-05-20T04:12:03.240Z,9.4
2023-05-20T04:13:03.235Z,9.5
2023-05-20T04:14:03.231Z,9.6
2023-05-20T04:15:03.249Z,9.5
2023-05-20T04:16:03.255Z,9.5
2023-05-20T04:17:03.270Z,9.5
2023-05-20T04:18:03.281Z,9.5
2023-05-20T04:19:03.273Z,9.5
2023-05-20T04:20:03.217Z,9.6
2023-05-20T04:21:03.278Z,9.6
2023-05-20T04:22:03.243Z,9.6
2023-05-20T04:23:03.309Z,9.6
2023-05-20T04:24:03.248Z,9.6
2023-05-20T04:25:03.227Z,9.6
2023-05-20T04:26:03.234Z,9.6
2023-05-20T04:27:03.215Z,9.6
2023-05-20T04:28:03.213Z,9.4
2023-05-20T04:29:03.275Z,9.5
2023-05-20T04:30:03.235Z,9.5
2023-05-20T04:31:03.224Z,9.5
2023-05-20T04:32:03.284Z,9.6
2023-05-20T04:33:03.279Z,9.6
2023-05-20T04:34:03.236Z,9.6
2023-05-20T04:35:03.229Z,9.6
2023-05-20T04:37:03.528Z,9.7
2023-05-20T04:38:03.295Z,9.7
2023-05-20T04:39:03.313Z,9.8
2023-05-20T04:39:57.682Z,9.8
2023-05-20T04:41:03.242Z,9.8
2023-05-20T04:42:03.250Z,9.6
2023-05-20T04:43:03.259Z,9.7
2023-05-20T04:44:03.238Z,9.8
2023-05-20T04:45:03.239Z,9.8
2023-05-20T04:46:03.272Z,9.9
2023-05-20T04:47:03.225Z,9.9
2023-05-20T04:48:03.282Z,9.9
2023-05-20T04:49:03.297Z,9.9
2023-05-20T04:50:03.258Z,9.9
2023-05-20T04:51:03.244Z,9.9
2023-05-20T04:52:03.248Z,9.9
2023-05-20T04:53:03.241Z,9.8
2023-05-20T04:54:03.244Z,9.9
2023-05-20T04:55:03.231Z,10
2023-05-20T04:56:03.269Z,10
2023-05-20T04:57:03.269Z,10
2023-05-20T04:58:03.288Z,10
2023-05-20T04:59:03.254Z,10
2023-05-20T05:00:03.248Z,10.1
2023-05-20T05:01:03.358Z,10.1
2023-05-20T05:02:03.220Z,10.1
2023-05-20T05:03:03.274Z,10.1
2023-05-20T05:04:03.246Z,10.2
2023-05-20T05:05:03.360Z,10.2
2023-05-20T05:06:03.237Z,10.3
2023-05-20T05:07:03.254Z,10.3
2023-05-20T05:08:03.261Z,10.3
2023-05-20T05:09:03.321Z,10.3
2023-05-20T05:10:03.249Z,10.4
2023-05-20T05:11:03.275Z,10.4
2023-05-20T05:12:03.402Z,10.5
2023-05-20T05:13:03.252Z,10.4
2023-05-20T05:14:03.257Z,10.5
2023-05-20T05:15:03.267Z,10.5
2023-05-20T05:17:03.245Z,10.6
2023-05-20T05:18:03.312Z,10.6
2023-05-20T05:19:03.298Z,10.6
2023-05-20T05:20:03.237Z,10.7
2023-05-20T05:21:03.245Z,10.6
2023-05-20T05:22:03.274Z,10.7
2023-05-20T05:23:03.279Z,10.7
2023-05-20T05:24:03.229Z,10.7
2023-05-20T05:25:03.263Z,10.8
2023-05-20T05:26:03.249Z,10.8
2023-05-20T05:27:03.250Z,10.7
2023-05-20T05:28:03.232Z,10.9
2023-05-20T05:29:03.257Z,10.9
2023-05-20T05:30:03.272Z,11
2023-05-20T05:31:03.239Z,11
2023-05-20T05:32:03.299Z,11
2023-05-20T05:33:03.403Z,11
2023-05-20T05:34:03.265Z,11.1
2023-05-20T05:35:03.898Z,11.1
2023-05-20T05:37:03.243Z,11.1
2023-05-20T05:38:03.263Z,10.9
2023-05-20T05:39:03.348Z,10.7
2023-05-20T05:40:03.274Z,10.4
2023-05-20T05:41:03.316Z,10.3
2023-05-20T05:42:03.248Z,10.2
2023-05-20T05:43:03.228Z,10.2
2023-05-20T05:44:03.319Z,10.2
2023-05-20T05:45:03.312Z,10.1
2023-05-20T05:46:03.266Z,10.2
2023-05-20T05:47:03.307Z,10.2
2023-05-20T05:48:03.322Z,10.2
2023-05-20T05:49:03.253Z,10.2
2023-05-20T05:50:03.253Z,10.1
2023-05-20T05:51:03.247Z,10.2
2023-05-20T05:52:03.264Z,10.2
2023-05-20T05:53:03.250Z,10
2023-05-20T05:54:03.238Z,10.1
2023-05-20T05:55:03.247Z,10
2023-05-20T05:56:03.231Z,10.1
2023-05-20T05:57:05.778Z,10
2023-05-20T05:58:03.255Z,10
2023-05-20T05:59:03.250Z,10.1
2023-05-20T06:00:03.258Z,10.1
2023-05-20T06:01:03.321Z,10.1
2023-05-20T06:02:03.310Z,10.2
2023-05-20T06:03:03.378Z,10.1
2023-05-20T06:04:03.364Z,10.1
2023-05-20T06:05:03.250Z,10.1
2023-05-20T06:06:03.253Z,10.2
2023-05-20T06:07:03.274Z,10.1
2023-05-20T06:09:03.276Z,10.1
2023-05-20T06:10:03.280Z,10.1
2023-05-20T06:11:03.231Z,10.2
2023-05-20T06:12:03.391Z,10.2
2023-05-20T06:13:03.246Z,10.2
2023-05-20T06:14:03.255Z,10.1
2023-05-20T06:15:03.231Z,10.1
2023-05-20T06:16:03.261Z,10.1
2023-05-20T06:17:03.324Z,10.1
2023-05-20T06:18:03.260Z,10.1
2023-05-20T06:19:03.918Z,10.1
2023-05-20T06:20:03.274Z,10.1
2023-05-20T06:21:03.253Z,9.9
2023-05-20T06:22:03.248Z,10
2023-05-20T06:23:03.250Z,10.1
2023-05-20T06:24:03.247Z,10.2
2023-05-20T06:25:03.252Z,10.1
2023-05-20T06:26:03.282Z,10.1
2023-05-20T06:27:03.258Z,10.1
2023-05-20T06:28:03.260Z,10.1
2023-05-20T06:29:03.258Z,10.1
2023-05-20T06:30:03.523Z,10.1
2023-05-20T06:31:03.304Z,10.1
2023-05-20T06:32:03.251Z,10.2
2023-05-20T06:33:03.309Z,10.2
2023-05-20T06:34:03.225Z,10.3
2023-05-20T06:35:03.247Z,10.3
2023-05-20T06:36:03.270Z,10.5
2023-05-20T06:37:03.231Z,10.5
2023-05-20T06:38:03.278Z,10.3
2023-05-20T06:39:03.225Z,10.3
2023-05-20T06:40:03.248Z,10.2
2023-05-20T06:42:03.272Z,10.2
2023-05-20T06:43:03.278Z,10
2023-05-20T06:44:03.269Z,9.9
2023-05-20T06:45:03.234Z,10.1
2023-05-20T06:46:03.435Z,10.2
2023-05-20T06:47:03.331Z,10.2
2023-05-20T06:48:03.329Z,10.2
2023-05-20T06:49:03.295Z,10.2
2023-05-20T06:50:03.237Z,10.1
2023-05-20T06:51:03.252Z,10.2
2023-05-20T06:52:03.293Z,10.3
2023-05-20T06:53:03.285Z,10.4
2023-05-20T06:55:03.279Z,10.1
2023-05-20T06:56:03.264Z,10.3
2023-05-20T06:57:03.257Z,10.3
2023-05-20T06:58:03.268Z,10.3
2023-05-20T06:59:03.267Z,10.3
2023-05-20T07:00:03.299Z,10.3
2023-05-20T07:02:03.319Z,10.3
2023-05-20T07:03:03.287Z,10.4
2023-05-20T07:04:03.325Z,10.4
2023-05-20T07:05:03.237Z,10.4
2023-05-20T07:07:03.266Z,10.4
2023-05-20T07:08:03.250Z,10.3
2023-05-20T07:09:03.308Z,10.4
2023-05-20T07:10:03.264Z,10.2
2023-05-20T07:11:03.263Z,10.2
2023-05-20T07:13:03.254Z,10.3
2023-05-20T07:14:03.273Z,10.4
2023-05-20T07:15:03.255Z,10.2
2023-05-20T07:16:03.336Z,10.3
2023-05-20T07:17:03.247Z,10.1
2023-05-20T07:18:03.309Z,10.4
2023-05-20T07:19:03.340Z,10.3
2023-05-20T07:20:03.269Z,10.3
2023-05-20T07:21:03.272Z,10.3
2023-05-20T07:22:03.252Z,10.4
2023-05-20T07:23:03.301Z,10.6
2023-05-20T07:25:03.265Z,10.5
2023-05-20T07:26:03.250Z,10.3
2023-05-20T07:27:03.260Z,10.2
2023-05-20T07:28:03.260Z,9.7
2023-05-20T07:29:03.261Z,9.8
2023-05-20T07:31:03.309Z,10.1
2023-05-20T07:32:03.340Z,9.9
2023-05-20T07:33:03.319Z,10.2
2023-05-20T07:34:03.260Z,10.2
2023-05-20T07:35:03.270Z,10.3
2023-05-20T07:36:03.363Z,10.4
2023-05-20T07:37:03.260Z,10.3
2023-05-20T07:38:03.250Z,10.4
2023-05-20T07:39:05.729Z,10.4
2023-05-20T07:40:03.249Z,10.4
2023-05-20T07:41:03.257Z,10.3
2023-05-20T07:42:03.258Z,10.1
2023-05-20T07:43:03.249Z,10.2
2023-05-20T07:44:03.296Z,9.9
2023-05-20T07:46:03.288Z,9.9
2023-05-20T07:47:03.275Z,9.9
2023-05-20T07:48:03.325Z,9.9
2023-05-20T07:49:03.270Z,9.9
2023-05-20T07:50:03.271Z,10
2023-05-20T07:51:03.260Z,9.8
2023-05-20T07:52:03.406Z,9.8
2023-05-20T07:53:03.290Z,9.8
2023-05-20T07:54:03.260Z,9.9
2023-05-20T07:55:03.273Z,9.9
2023-05-20T07:56:03.275Z,10
2023-05-20T07:57:03.265Z,9.9
2023-05-20T07:58:03.287Z,9.9
2023-05-20T07:59:03.284Z,9.9
2023-05-20T08:00:03.295Z,9.9
2023-05-20T08:01:03.283Z,9.9
2023-05-20T08:02:03.274Z,10.1
2023-05-20T08:03:03.375Z,9.9
2023-05-20T08:04:03.419Z,10
2023-05-20T08:05:03.279Z,9.8
2023-05-20T08:07:03.261Z,9.9
2023-05-20T08:12:13.557Z,9.8
2023-05-20T08:13:13.543Z,10
2023-05-20T08:14:03.293Z,9.8
2023-05-20T08:15:03.260Z,10.1
2023-05-20T08:16:03.259Z,9.9
2023-05-20T08:17:03.328Z,9.9
2023-05-20T08:19:03.293Z,9.8
2023-05-20T08:20:03.260Z,9.9
2023-05-20T08:21:03.288Z,10
2023-05-20T08:22:03.262Z,9.7
2023-05-20T08:23:03.302Z,9.8
2023-05-20T08:24:03.272Z,10
2023-05-20T08:25:03.276Z,9.9
2023-05-20T08:26:03.294Z,10
2023-05-20T08:27:03.255Z,10.2
2023-05-20T08:28:03.282Z,10.3
2023-05-20T08:29:03.280Z,10.1
2023-05-20T08:30:03.615Z,9.8
2023-05-20T08:31:03.331Z,9.9
2023-05-20T08:32:03.278Z,9.6
2023-05-20T08:33:03.353Z,9.9
2023-05-20T08:34:03.285Z,9.8
2023-05-20T08:35:03.521Z,9.8
2023-05-20T08:37:03.256Z,9.9
2023-05-20T08:38:03.275Z,9.9
2023-05-20T08:39:03.262Z,9.7
2023-05-20T08:40:03.272Z,9.8
2023-05-20T08:41:04.046Z,10
2023-05-20T08:42:03.280Z,9.9
2023-05-20T08:43:03.299Z,9.9
2023-05-20T08:44:03.279Z,10
2023-05-20T08:45:03.490Z,9.9
2023-05-20T08:46:03.285Z,9.9
2023-05-20T08:47:03.268Z,10
2023-05-20T08:48:03.301Z,10.1
2023-05-20T08:49:03.268Z,10
2023-05-20T08:50:03.368Z,9.7
2023-05-20T08:51:03.277Z,9.8
2023-05-20T08:52:03.277Z,10
2023-05-20T08:53:03.288Z,10.1
2023-05-20T08:54:03.296Z,10.3
2023-05-20T08:55:03.263Z,10.3
2023-05-20T08:56:03.915Z,10.2
2023-05-20T08:57:03.278Z,10.2
2023-05-20T08:58:03.265Z,10.4
2023-05-20T08:59:03.302Z,10.6
2023-05-20T09:00:03.360Z,10.6
2023-05-20T09:01:03.336Z,10
2023-05-20T09:02:03.379Z,10.3
2023-05-20T09:03:03.292Z,10.4
2023-05-20T09:04:03.276Z,10.2
2023-05-20T09:05:03.325Z,9.8
2023-05-20T09:07:03.275Z,9.4
2023-05-20T09:08:05.076Z,9.2
2023-05-20T09:10:03.301Z,9.3
2023-05-20T09:11:03.289Z,9.3
2023-05-20T09:12:03.292Z,9.5
2023-05-20T09:13:03.289Z,9.4
2023-05-20T09:14:03.286Z,9.4
2023-05-20T09:15:03.262Z,9.3
2023-05-20T09:16:03.431Z,9.4
2023-05-20T09:17:03.276Z,9.6
2023-05-20T09:18:03.311Z,9.5
2023-05-20T09:19:03.346Z,9.4
2023-05-20T09:20:03.295Z,9.4
2023-05-20T09:21:03.282Z,9.5
2023-05-20T09:22:03.274Z,9.9
2023-05-20T09:24:03.290Z,9.8
2023-05-20T09:25:03.296Z,9.8
2023-05-20T09:27:03.267Z,9.7
2023-05-20T09:28:03.297Z,9.9
2023-05-20T09:29:03.278Z,9.7
2023-05-20T09:30:03.615Z,9.5
2023-05-20T09:31:03.284Z,9.5
2023-05-20T09:32:03.320Z,9.3
2023-05-20T09:33:03.624Z,9.2
2023-05-20T09:34:03.303Z,9.3
2023-05-20T09:35:03.320Z,9.2
2023-05-20T09:36:03.617Z,9.2
2023-05-20T09:37:03.292Z,9.2
2023-05-20T09:38:03.280Z,9.4
2023-05-20T09:39:03.311Z,9.5
2023-05-20T09:40:03.294Z,9.6
2023-05-20T09:41:03.358Z,9.5
2023-05-20T09:42:03.958Z,9.7
2023-05-20T09:43:03.307Z,9.7
2023-05-20T09:44:03.320Z,9.5
2023-05-20T09:45:03.318Z,9.5
2023-05-20T09:47:03.276Z,9.4
2023-05-20T09:48:03.407Z,9.5
2023-05-20T09:49:03.304Z,9.6
2023-05-20T09:50:03.278Z,9.6
2023-05-20T09:51:03.275Z,9.5
2023-05-20T09:52:03.548Z,9.5
2023-05-20T09:54:03.298Z,9.7
2023-05-20T09:55:03.315Z,9.6
2023-05-20T09:56:03.340Z,9.7
2023-05-20T09:57:03.289Z,9.9
2023-05-20T09:58:03.342Z,9.8
2023-05-20T09:59:03.297Z,9.7
2023-05-20T10:00:03.302Z,9.7
2023-05-20T10:02:03.274Z,9.8
2023-05-20T10:03:03.328Z,9.6
2023-05-20T10:04:03.406Z,9.6
2023-05-20T10:05:03.303Z,9.6
2023-05-20T10:06:03.325Z,9.7
2023-05-20T10:07:03.296Z,9.6
2023-05-20T10:08:03.299Z,9.7
2023-05-20T10:09:03.317Z,9.7
2023-05-20T10:10:03.292Z,9.9
2023-05-20T10:11:03.306Z,10.1
2023-05-20T10:12:03.311Z,10
2023-05-20T10:13:03.272Z,9.6
2023-05-20T10:14:03.322Z,9.8
2023-05-20T10:15:03.542Z,9.9
2023-05-20T10:16:03.377Z,9.9
2023-05-20T10:17:03.297Z,9.8
2023-05-20T10:18:03.361Z,9.8
2023-05-20T10:19:03.324Z,9.9
2023-05-20T10:20:05.881Z,9.9
2023-05-20T10:21:03.299Z,9.7
2023-05-20T10:22:03.343Z,9.7
2023-05-20T10:23:03.316Z,9.8
2023-05-20T10:25:03.297Z,9.9
2023-05-20T10:26:03.319Z,10.1
2023-05-20T10:27:03.292Z,10
2023-05-20T10:28:03.284Z,9.6
2023-05-20T10:29:03.326Z,9.6
2023-05-20T10:31:03.338Z,9.6
2023-05-20T10:32:03.312Z,9.6
2023-05-20T10:33:03.475Z,9.7
2023-05-20T10:34:03.294Z,9.8
2023-05-20T10:35:03.328Z,9.8
2023-05-20T10:37:03.302Z,9.7
2023-05-20T10:38:03.276Z,9.6
2023-05-20T10:39:03.301Z,9.8
2023-05-20T10:40:03.300Z,9.9
2023-05-20T10:41:03.298Z,9.8
2023-05-20T10:42:03.293Z,9.9
2023-05-20T10:43:03.421Z,9.8
2023-05-20T10:44:03.363Z,9.6
2023-05-20T10:45:03.293Z,9.6
2023-05-20T10:46:07.380Z,9.7
2023-05-20T10:47:21.008Z,9.9
2023-05-20T10:48:03.409Z,9.9
2023-05-20T10:49:03.595Z,10.1
2023-05-20T10:50:03.306Z,9.8
2023-05-20T10:52:03.287Z,9.8
2023-05-20T10:53:03.301Z,9.9
2023-05-20T10:54:03.308Z,9.9
2023-05-20T10:55:03.304Z,10
2023-05-20T10:56:03.304Z,10
2023-05-20T10:57:03.309Z,9.8
2023-05-20T10:58:03.302Z,10
2023-05-20T10:59:03.316Z,10.2
2023-05-20T11:00:03.313Z,10.1
2023-05-20T11:01:04.224Z,10.3
2023-05-20T11:02:03.309Z,10.1
2023-05-20T11:03:03.370Z,10
2023-05-20T11:04:03.485Z,9.9
2023-05-20T11:05:03.322Z,9.9
2023-05-20T11:06:03.307Z,10
2023-05-20T11:07:03.322Z,10.2
2023-05-20T11:08:08.055Z,10.2
2023-05-20T11:09:03.319Z,10.4
2023-05-20T11:10:03.371Z,10
2023-05-20T11:11:03.306Z,10
2023-05-20T11:12:03.309Z,10
2023-05-20T11:13:03.370Z,10.1
2023-05-20T11:14:03.321Z,10.3
2023-05-20T11:15:03.308Z,10.1
2023-05-20T11:16:03.307Z,10.2
2023-05-20T11:17:03.466Z,10.2
2023-05-20T11:18:03.327Z,10
2023-05-20T11:19:03.332Z,10
2023-05-20T11:20:03.320Z,9.9
2023-05-20T11:21:03.307Z,9.9
2023-05-20T11:22:03.372Z,9.8
2023-05-20T11:23:03.309Z,9.9
2023-05-20T11:24:03.318Z,9.8
2023-05-20T11:25:03.307Z,9.8
2023-05-20T11:26:03.316Z,9.8
2023-05-20T11:27:03.330Z,9.9
2023-05-20T11:28:03.331Z,10
2023-05-20T11:29:03.317Z,9.8
2023-05-20T11:31:03.319Z,9.8
2023-05-20T11:32:03.387Z,9.9
2023-05-20T11:33:03.329Z,9.7
2023-05-20T11:34:03.301Z,9.9
2023-05-20T11:35:03.319Z,9.7
2023-05-20T11:37:03.300Z,9.8
2023-05-20T11:38:03.335Z,9.9
2023-05-20T11:39:03.399Z,10
2023-05-20T11:40:03.312Z,10.2
2023-05-20T11:41:03.361Z,10.1
2023-05-20T11:42:03.310Z,9.9
2023-05-20T11:43:03.316Z,10
2023-05-20T11:44:03.339Z,10.1
2023-05-20T11:45:03.317Z,9.9
2023-05-20T11:46:03.426Z,10
2023-05-20T11:47:03.386Z,10.1
2023-05-20T11:48:03.352Z,9.9
2023-05-20T11:49:03.321Z,10
2023-05-20T11:50:03.297Z,10.1
2023-05-20T11:51:03.340Z,10
2023-05-20T11:52:03.327Z,10.3
2023-05-20T11:53:03.331Z,10.3
2023-05-20T11:55:03.310Z,10
2023-05-20T11:56:03.340Z,10.1
2023-05-20T11:57:05.107Z,10.3
2023-05-20T11:58:03.330Z,10.1
2023-05-20T11:59:03.348Z,10.2
2023-05-20T12:01:21.719Z,9.8
2023-05-20T12:02:03.327Z,9.8
2023-05-20T12:03:03.380Z,9.6
2023-05-20T12:04:03.402Z,9.9
2023-05-20T12:05:03.427Z,10.1
2023-05-20T12:07:03.337Z,9.9
2023-05-20T12:08:03.332Z,9.9
2023-05-20T12:09:03.300Z,10
2023-05-20T12:10:03.350Z,9.9
2023-05-20T12:11:03.338Z,9.8
2023-05-20T12:12:03.333Z,9.8
2023-05-20T12:13:03.358Z,9.9
2023-05-20T12:14:03.351Z,9.8
2023-05-20T12:15:03.418Z,9.9
2023-05-20T12:17:03.387Z,10
2023-05-20T12:18:03.419Z,10
2023-05-20T12:19:03.379Z,9.9
2023-05-20T12:20:03.332Z,9.9
2023-05-20T12:21:03.319Z,9.8
2023-05-20T12:22:03.381Z,9.9
2023-05-20T12:23:03.339Z,10.2
2023-05-20T12:24:03.312Z,10.1
2023-05-20T12:25:03.326Z,10
2023-05-20T12:27:03.334Z,10.1
2023-05-20T12:28:03.337Z,10
2023-05-20T12:29:03.371Z,10.1
2023-05-20T12:30:03.323Z,10.1
2023-05-20T12:31:03.332Z,10.1
2023-05-20T12:32:03.353Z,10
2023-05-20T12:33:03.377Z,10.2
2023-05-20T12:34:03.344Z,10.1
2023-05-20T12:35:03.323Z,10.2
2023-05-20T12:36:03.314Z,9.8
2023-05-20T12:37:03.344Z,10.1
2023-05-20T12:38:03.323Z,10
2023-05-20T12:39:03.351Z,9.9
2023-05-20T12:40:03.322Z,9.9
2023-05-20T12:41:03.328Z,10
2023-05-20T12:42:03.334Z,9.6
2023-05-20T12:43:03.332Z,9.7
2023-05-20T12:44:03.361Z,9.8
2023-05-20T12:45:03.362Z,10
2023-05-20T12:46:03.320Z,9.9
2023-05-20T12:47:03.450Z,9.9
2023-05-20T12:48:03.415Z,9.9
2023-05-20T12:49:03.313Z,10
2023-05-20T12:50:03.326Z,10.1
2023-05-20T12:51:03.351Z,10.1
2023-05-20T12:52:05.755Z,10.1
2023-05-20T12:54:03.316Z,10.4
2023-05-20T12:55:03.338Z,9.9
2023-05-20T12:56:03.392Z,9.7
2023-05-20T12:57:03.347Z,9.5
2023-05-20T12:58:03.336Z,9.7
2023-05-20T12:59:03.372Z,9.6
2023-05-20T13:00:03.352Z,9.5
2023-05-20T13:00:57.739Z,9.7
2023-05-20T13:02:03.365Z,9.8
2023-05-20T13:03:03.519Z,9.9
2023-05-20T13:04:03.369Z,9.8
2023-05-20T13:05:03.337Z,9.6
2023-05-20T13:07:03.348Z,9.8
2023-05-20T13:08:03.339Z,9.9
2023-05-20T13:09:03.352Z,9.8
2023-05-20T13:10:03.334Z,9.8
2023-05-20T13:11:03.338Z,9.7
2023-05-20T13:12:03.339Z,9.8
2023-05-20T13:13:03.387Z,9.6
2023-05-20T13:14:03.366Z,9.9
2023-05-20T13:15:03.347Z,9.7
2023-05-20T13:16:03.342Z,9.8
2023-05-20T13:17:03.413Z,9.8
2023-05-20T13:18:03.447Z,9.8
2023-05-20T13:19:03.439Z,10
2023-05-20T13:20:03.457Z,10
2023-05-20T13:21:03.313Z,10
2023-05-20T13:22:03.331Z,10.1
2023-05-20T13:23:03.357Z,10
2023-05-20T13:24:03.354Z,9.7
2023-05-20T13:25:03.333Z,9.8
2023-05-20T13:27:03.342Z,10
2023-05-20T13:28:03.339Z,9.7
2023-05-20T13:29:03.340Z,9.6
2023-05-20T13:30:03.332Z,9.8
2023-05-20T13:32:03.346Z,9.6
2023-05-20T13:33:03.397Z,9.7
2023-05-20T13:34:03.338Z,9.6
2023-05-20T13:35:03.350Z,9.9
2023-05-20T13:36:03.353Z,9.9
2023-05-20T13:37:03.354Z,9.7
2023-05-20T13:38:03.324Z,9.4
2023-05-20T13:39:03.336Z,9.5
2023-05-20T13:40:03.460Z,9.5
2023-05-20T13:41:03.350Z,9.7
2023-05-20T13:42:03.338Z,9.8
2023-05-20T13:43:03.373Z,9.7
2023-05-20T13:44:03.365Z,9.9
2023-05-20T13:45:03.328Z,9.8
2023-05-20T13:46:03.370Z,9.9
2023-05-20T13:47:03.399Z,9.8
2023-05-20T13:48:03.385Z,9.7
2023-05-20T13:49:03.331Z,9.7
2023-05-20T13:50:03.525Z,9.7
2023-05-20T13:51:03.352Z,9.8
2023-05-20T13:52:03.353Z,9.8
2023-05-20T13:53:03.333Z,9.9
2023-05-20T13:54:03.355Z,9.9
2023-05-20T13:55:03.368Z,9.9
2023-05-20T13:56:03.353Z,9.9
2023-05-20T13:57:03.353Z,9.7
2023-05-20T13:58:03.360Z,9.8
2023-05-20T13:59:03.368Z,10
2023-05-20T14:01:03.336Z,10.1
2023-05-20T14:02:03.501Z,10
2023-05-20T14:03:03.454Z,10
2023-05-20T14:04:03.393Z,10.1
2023-05-20T14:05:03.340Z,10.1
2023-05-20T14:06:03.355Z,10.2
2023-05-20T14:07:03.361Z,9.9
2023-05-20T14:08:03.341Z,9.7
2023-05-20T14:09:03.347Z,9.9
2023-05-20T14:10:03.376Z,9.6
2023-05-20T14:12:03.351Z,9.5
2023-05-20T14:13:03.350Z,9.7
2023-05-20T14:14:03.375Z,9.9
2023-05-20T14:15:03.377Z,9.8
2023-05-20T14:16:03.408Z,9.7
2023-05-20T14:17:03.355Z,9.9
2023-05-20T14:18:03.408Z,9.7
2023-05-20T14:19:03.376Z,9.7
2023-05-20T14:20:03.349Z,9.7
2023-05-20T14:21:03.363Z,9.8
2023-05-20T14:23:03.449Z,10
2023-05-20T14:24:03.353Z,9.7
2023-05-20T14:25:03.344Z,9.9
2023-05-20T14:26:03.367Z,9.7
2023-05-20T14:27:03.412Z,9.6
2023-05-20T14:28:03.333Z,9.7
2023-05-20T14:29:03.409Z,9.8
2023-05-20T14:30:03.361Z,9.8
2023-05-20T14:31:03.395Z,9.8
2023-05-20T14:32:03.415Z,9.7
2023-05-20T14:33:03.392Z,9.8
2023-05-20T14:34:03.356Z,9.8
2023-05-20T14:35:03.365Z,10